This is the latest recevied weather packets stored in our database for station/object VA3ZFM-10. If no packets are shown the sender has not sent any weather packets the latest 10 day(s).
| Time | Temp. | Humidity | Pressure | Rain* | Wind** | Luminosity | Snow |
|---|---|---|---|---|---|---|---|
| 1777656924 | 6.67° C | 57% | 1011 hPa | 0 mm | - | - | - |
| 1777656621 | 6.67° C | 55% | 1010.9 hPa | 0 mm | - | - | - |
| 1777656316 | 6.67° C | 54% | 1010.8 hPa | 0 mm | - | - | - |
| 1777656012 | 6.67° C | 54% | 1010.7 hPa | 0 mm | - | - | - |
| 1777655708 | 6.67° C | 55% | 1010.9 hPa | 0 mm | - | - | - |
| 1777655405 | 6.67° C | 56% | 1011.1 hPa | 0 mm | - | - | - |
| 1777655101 | 6.67° C | 55% | 1011.1 hPa | 0 mm | - | - | - |
| 1777654799 | 7.78° C | 53% | 1011.2 hPa | 0 mm | - | - | - |
| 1777654496 | 7.78° C | 55% | 1011 hPa | 0 mm | - | - | - |
| 1777654194 | 7.22° C | 57% | 1011.1 hPa | 0 mm | - | - | - |
| 1777653892 | 6.11° C | 58% | 1011.3 hPa | 0 mm | - | - | - |
| 1777653588 | 5.56° C | 59% | 1011.3 hPa | 0 mm | - | - | - |
| 1777653284 | 5.56° C | 60% | 1011.7 hPa | 0 mm | - | - | - |
| 1777652981 | 5.56° C | 62% | 1011.5 hPa | 0 mm | - | - | - |
| 1777652677 | 5° C | 62% | 1011.6 hPa | 0 mm | - | - | - |
| 1777652375 | 4.44° C | 64% | 1011.4 hPa | 0 mm | - | - | - |
| 1777652072 | 4.44° C | 67% | 1011.7 hPa | 0 mm | - | - | - |
| 1777651768 | 5° C | 62% | 1011.9 hPa | 0 mm | - | - | - |
| 1777651465 | 5.56° C | 58% | 1012 hPa | 0 mm | - | - | - |
| 1777651163 | 5° C | 58% | 1011.7 hPa | 0 mm | - | - | - |
| 1777650859 | 5° C | 58% | 1011.9 hPa | 0 mm | - | - | - |
| 1777650556 | 5° C | 58% | 1011.9 hPa | 0 mm | - | - | - |
| 1777650254 | 5° C | 59% | 1012 hPa | 0 mm | - | - | - |
| 1777649950 | 5° C | 58% | 1012 hPa | 0 mm | - | - | - |
| 1777649648 | 5° C | 60% | 1012 hPa | 0 mm | - | - | - |
* Rain latest hour (hover to see other rain measurements)
** Current wind speed in m/s (hover to see current wind gust speed)